createdAt,value
2018-09-25T00:00:59.432Z,1025.81
2018-09-25T00:01:59.444Z,1025.84
2018-09-25T00:02:59.460Z,1025.82
2018-09-25T00:03:59.473Z,1025.88
2018-09-25T00:04:59.497Z,1025.86
2018-09-25T00:05:59.513Z,1025.88
2018-09-25T00:06:59.525Z,1025.88
2018-09-25T00:07:59.539Z,1025.91
2018-09-25T00:08:59.552Z,1025.91
2018-09-25T00:09:59.566Z,1025.91
2018-09-25T00:10:59.579Z,1025.89
2018-09-25T00:11:59.593Z,1025.93
2018-09-25T00:12:59.619Z,1025.94
2018-09-25T00:13:59.621Z,1025.88
2018-09-25T00:14:59.635Z,1025.89
2018-09-25T00:15:59.648Z,1025.89
2018-09-25T00:16:59.661Z,1025.89
2018-09-25T00:17:59.675Z,1025.91
2018-09-25T00:18:59.688Z,1025.92
2018-09-25T00:19:59.710Z,1025.96
2018-09-25T00:20:59.714Z,1025.95
2018-09-25T00:21:59.729Z,1025.97
2018-09-25T00:22:59.742Z,1026.00
2018-09-25T00:23:59.755Z,1026.00
2018-09-25T00:24:59.768Z,1026.04
2018-09-25T00:25:59.783Z,1026.02
2018-09-25T00:26:59.797Z,1026.03
2018-09-25T00:27:59.822Z,1025.98
2018-09-25T00:28:59.836Z,1026.04
2018-09-25T00:29:59.848Z,1026.02
2018-09-25T00:30:59.863Z,1026.01
2018-09-25T00:31:59.875Z,1026.03
2018-09-25T00:32:59.889Z,1026.07
2018-09-25T00:33:59.903Z,1026.05
2018-09-25T00:34:59.917Z,1026.07
2018-09-25T00:35:59.931Z,1026.11
2018-09-25T00:36:59.944Z,1026.09
2018-09-25T00:37:59.956Z,1026.06
2018-09-25T00:38:59.970Z,1026.14
2018-09-25T00:39:59.984Z,1026.15
2018-09-25T00:40:59.999Z,1026.13
2018-09-25T00:42:00.011Z,1026.13
2018-09-25T00:43:00.025Z,1026.20
2018-09-25T00:44:00.038Z,1026.19
2018-09-25T00:45:00.053Z,1026.16
2018-09-25T00:46:00.065Z,1026.17
2018-09-25T00:47:00.147Z,1026.15
2018-09-25T00:48:00.092Z,1026.19
2018-09-25T00:49:00.107Z,1026.23
2018-09-25T00:50:00.121Z,1026.23
2018-09-25T00:51:00.134Z,1026.20
2018-09-25T00:52:00.146Z,1026.16
2018-09-25T00:53:00.161Z,1026.15
2018-09-25T00:54:00.174Z,1026.15
2018-09-25T00:55:00.188Z,1026.12
2018-09-25T00:56:00.200Z,1026.13
2018-09-25T00:57:00.221Z,1026.15
2018-09-25T00:58:00.227Z,1026.16
2018-09-25T00:59:00.242Z,1026.19
2018-09-25T01:00:00.255Z,1026.15
2018-09-25T01:01:00.268Z,1026.22
2018-09-25T01:02:00.282Z,1026.22
2018-09-25T01:03:00.302Z,1026.26
2018-09-25T01:04:00.312Z,1026.30
2018-09-25T01:05:00.335Z,1026.29
2018-09-25T01:06:00.337Z,1026.32
2018-09-25T01:07:00.363Z,1026.34
2018-09-25T01:08:00.376Z,1026.28
2018-09-25T01:09:00.391Z,1026.28
2018-09-25T01:10:00.403Z,1026.27
2018-09-25T01:11:00.421Z,1026.31
2018-09-25T01:12:00.430Z,1026.30
2018-09-25T01:13:00.443Z,1026.34
2018-09-25T01:14:00.457Z,1026.32
2018-09-25T01:15:00.469Z,1026.34
2018-09-25T01:16:00.484Z,1026.32
2018-09-25T01:17:00.496Z,1026.41
2018-09-25T01:18:00.510Z,1026.39
2018-09-25T01:19:00.527Z,1026.33
2018-09-25T01:20:00.539Z,1026.32
2018-09-25T01:21:00.552Z,1026.37
2018-09-25T01:22:00.566Z,1026.41
2018-09-25T01:23:00.577Z,1026.42
2018-09-25T01:24:00.592Z,1026.40
2018-09-25T01:25:00.605Z,1026.45
2018-09-25T01:26:00.620Z,1026.46
2018-09-25T01:27:00.632Z,1026.45
2018-09-25T01:28:00.649Z,1026.43
2018-09-25T01:29:00.659Z,1026.42
2018-09-25T01:30:00.677Z,1026.44
2018-09-25T01:31:00.688Z,1026.45
2018-09-25T01:32:00.701Z,1026.45
2018-09-25T01:33:00.713Z,1026.46
2018-09-25T01:34:00.727Z,1026.52
2018-09-25T01:35:00.740Z,1026.51
2018-09-25T01:36:00.754Z,1026.56
2018-09-25T01:37:00.779Z,1026.53
2018-09-25T01:38:00.782Z,1026.54
2018-09-25T01:39:00.794Z,1026.54
2018-09-25T01:40:00.809Z,1026.56
2018-09-25T01:41:00.823Z,1026.54
2018-09-25T01:42:00.836Z,1026.55
2018-09-25T01:43:00.849Z,1026.57
2018-09-25T01:44:00.865Z,1026.55
2018-09-25T01:45:00.878Z,1026.55
2018-09-25T01:46:00.889Z,1026.57
2018-09-25T01:47:00.903Z,1026.57
2018-09-25T01:48:00.917Z,1026.61
2018-09-25T01:49:00.931Z,1026.61
2018-09-25T01:50:00.942Z,1026.59
2018-09-25T01:51:00.969Z,1026.60
2018-09-25T01:52:00.971Z,1026.63
2018-09-25T01:53:00.983Z,1026.61
2018-09-25T01:54:00.998Z,1026.61
2018-09-25T01:55:01.013Z,1026.61
2018-09-25T01:56:01.025Z,1026.56
2018-09-25T01:57:01.041Z,1026.60
2018-09-25T01:58:01.059Z,1026.56
2018-09-25T01:59:01.065Z,1026.58
2018-09-25T02:00:01.079Z,1026.62
2018-09-25T02:01:01.094Z,1026.59
2018-09-25T02:02:01.110Z,1026.64
2018-09-25T02:03:01.121Z,1026.64
2018-09-25T02:04:01.134Z,1026.67
2018-09-25T02:05:01.159Z,1026.67
2018-09-25T02:06:01.161Z,1026.66
2018-09-25T02:07:01.174Z,1026.68
2018-09-25T02:08:01.199Z,1026.69
2018-09-25T02:09:01.213Z,1026.73
2018-09-25T02:10:01.215Z,1026.71
2018-09-25T02:11:01.231Z,1026.73
2018-09-25T02:12:01.258Z,1026.73
2018-09-25T02:13:01.268Z,1026.75
2018-09-25T02:14:01.283Z,1026.77
2018-09-25T02:15:01.295Z,1026.78
2018-09-25T02:16:01.308Z,1026.78
2018-09-25T02:17:01.321Z,1026.81
2018-09-25T02:18:01.337Z,1026.80
2018-09-25T02:19:01.349Z,1026.82
2018-09-25T02:20:01.362Z,1026.81
2018-09-25T02:21:01.376Z,1026.82
2018-09-25T02:22:01.390Z,1026.81
2018-09-25T02:23:01.403Z,1026.82
2018-09-25T02:24:01.416Z,1026.86
2018-09-25T02:25:01.431Z,1026.86
2018-09-25T02:26:01.444Z,1026.87
2018-09-25T02:27:01.458Z,1026.91
2018-09-25T02:28:01.471Z,1026.96
2018-09-25T02:29:01.485Z,1026.99
2018-09-25T02:30:01.499Z,1026.99
2018-09-25T02:31:01.519Z,1026.96
2018-09-25T02:32:01.525Z,1026.96
2018-09-25T02:33:01.539Z,1026.95
2018-09-25T02:34:01.551Z,1027.01
2018-09-25T02:35:01.577Z,1026.98
2018-09-25T02:36:01.591Z,1027.02
2018-09-25T02:37:01.593Z,1027.06
2018-09-25T02:38:01.605Z,1027.13
2018-09-25T02:39:01.619Z,1027.07
2018-09-25T02:40:01.639Z,1027.07
2018-09-25T02:41:01.647Z,1027.13
2018-09-25T02:42:01.664Z,1027.09
2018-09-25T02:43:01.674Z,1027.10
2018-09-25T02:44:01.687Z,1027.09
2018-09-25T02:45:01.701Z,1027.06
2018-09-25T02:46:01.713Z,1027.09
2018-09-25T02:47:01.728Z,1027.14
2018-09-25T02:48:01.741Z,1027.08
2018-09-25T02:49:01.755Z,1027.04
2018-09-25T02:50:01.780Z,1027.08
2018-09-25T02:51:01.783Z,1027.11
2018-09-25T02:52:01.802Z,1027.15
2018-09-25T02:53:01.810Z,1027.19
2018-09-25T02:54:01.830Z,1027.16
2018-09-25T02:55:01.838Z,1027.21
2018-09-25T02:56:01.849Z,1027.21
2018-09-25T02:57:01.863Z,1027.23
2018-09-25T02:58:01.877Z,1027.27
2018-09-25T02:59:01.890Z,1027.26
2018-09-25T03:00:01.905Z,1027.26
2018-09-25T03:01:01.917Z,1027.30
2018-09-25T03:02:01.929Z,1027.30
2018-09-25T03:03:01.945Z,1027.34
2018-09-25T03:04:01.961Z,1027.31
2018-09-25T03:05:01.971Z,1027.31
2018-09-25T03:06:01.983Z,1027.29
2018-09-25T03:07:01.999Z,1027.36
2018-09-25T03:08:02.011Z,1027.34
2018-09-25T03:09:02.025Z,1027.35
2018-09-25T03:10:02.040Z,1027.35
2018-09-25T03:11:02.053Z,1027.36
2018-09-25T03:12:02.064Z,1027.35
2018-09-25T03:13:02.080Z,1027.37
2018-09-25T03:14:02.092Z,1027.37
2018-09-25T03:15:02.106Z,1027.36
2018-09-25T03:16:02.119Z,1027.35
2018-09-25T03:17:02.134Z,1027.36
2018-09-25T03:18:02.159Z,1027.35
2018-09-25T03:19:02.174Z,1027.36
2018-09-25T03:20:02.174Z,1027.33
2018-09-25T03:21:02.204Z,1027.30
2018-09-25T03:22:02.202Z,1027.32
2018-09-25T03:23:02.216Z,1027.34
2018-09-25T03:24:02.309Z,1027.36
2018-09-25T03:25:02.247Z,1027.41
2018-09-25T03:26:02.254Z,1027.37
2018-09-25T03:27:02.270Z,1027.44
2018-09-25T03:28:02.283Z,1027.42
2018-09-25T03:29:02.296Z,1027.48
2018-09-25T03:30:02.298Z,1027.45
2018-09-25T03:31:02.311Z,1027.44
2018-09-25T03:32:02.337Z,1027.42
2018-09-25T03:33:02.353Z,1027.42
2018-09-25T03:34:02.352Z,1027.45
2018-09-25T03:35:02.367Z,1027.43
2018-09-25T03:36:02.378Z,1027.47
2018-09-25T03:37:02.394Z,1027.47
2018-09-25T03:38:02.406Z,1027.45
2018-09-25T03:39:02.420Z,1027.52
2018-09-25T03:40:02.432Z,1027.49
2018-09-25T03:41:02.446Z,1027.51
2018-09-25T03:42:02.459Z,1027.52
2018-09-25T03:43:02.473Z,1027.51
2018-09-25T03:44:02.487Z,1027.53
2018-09-25T03:45:02.500Z,1027.53
2018-09-25T03:46:02.514Z,1027.55
2018-09-25T03:47:02.531Z,1027.56
2018-09-25T03:48:02.540Z,1027.56
2018-09-25T03:49:02.570Z,1027.61
2018-09-25T03:50:02.867Z,1027.62
2018-09-25T03:51:02.581Z,1027.58
2018-09-25T03:52:02.598Z,1027.64
2018-09-25T03:53:02.611Z,1027.64
2018-09-25T03:54:02.645Z,1027.63
2018-09-25T03:55:02.884Z,1027.64
2018-09-25T03:56:02.653Z,1027.65
2018-09-25T03:57:02.664Z,1027.68
2018-09-25T03:58:02.676Z,1027.72
2018-09-25T03:59:02.688Z,1027.72
2018-09-25T04:00:02.956Z,1027.69
2018-09-25T04:01:02.716Z,1027.72
2018-09-25T04:02:02.731Z,1027.69
2018-09-25T04:03:02.756Z,1027.76
2018-09-25T04:04:02.758Z,1027.75
2018-09-25T04:05:02.769Z,1027.78
2018-09-25T04:06:02.838Z,1027.78
2018-09-25T04:07:02.798Z,1027.83
2018-09-25T04:08:02.812Z,1027.82
2018-09-25T04:09:02.825Z,1027.86
2018-09-25T04:10:02.842Z,1027.84
2018-09-25T04:11:02.852Z,1027.93
2018-09-25T04:12:02.865Z,1027.86
2018-09-25T04:13:02.878Z,1027.92
2018-09-25T04:14:02.893Z,1027.95
2018-09-25T04:15:02.907Z,1027.97
2018-09-25T04:16:02.921Z,1027.98
2018-09-25T04:17:02.945Z,1028.01
2018-09-25T04:18:02.946Z,1028.02
2018-09-25T04:19:02.962Z,1028.12
2018-09-25T04:20:02.974Z,1028.09
2018-09-25T04:21:02.987Z,1028.15
2018-09-25T04:22:03.001Z,1028.08
2018-09-25T04:23:03.013Z,1028.14
2018-09-25T04:24:03.032Z,1028.16
2018-09-25T04:25:03.046Z,1028.20
2018-09-25T04:26:03.054Z,1028.16
2018-09-25T04:27:03.068Z,1028.16
2018-09-25T04:28:03.081Z,1028.21
2018-09-25T04:29:03.095Z,1028.20
2018-09-25T04:30:03.109Z,1028.26
2018-09-25T04:31:03.134Z,1028.21
2018-09-25T04:32:03.137Z,1028.26
2018-09-25T04:33:03.149Z,1028.28
2018-09-25T04:34:03.163Z,1028.26
2018-09-25T04:35:03.178Z,1028.28
2018-09-25T04:36:03.191Z,1028.33
2018-09-25T04:37:03.264Z,1028.34
2018-09-25T04:38:03.205Z,1028.36
2018-09-25T04:39:03.230Z,1028.36
2018-09-25T04:40:03.233Z,1028.39
2018-09-25T04:41:03.246Z,1028.41
2018-09-25T04:42:03.262Z,1028.40
2018-09-25T04:43:03.284Z,1028.43
2018-09-25T04:44:03.285Z,1028.45
2018-09-25T04:45:03.300Z,1028.48
2018-09-25T04:46:03.313Z,1028.47
2018-09-25T04:47:03.375Z,1028.52
2018-09-25T04:48:03.339Z,1028.53
2018-09-25T04:49:03.353Z,1028.57
2018-09-25T04:50:03.379Z,1028.56
2018-09-25T04:51:03.380Z,1028.57
2018-09-25T04:52:03.393Z,1028.59
2018-09-25T04:53:03.409Z,1028.62
2018-09-25T04:54:03.420Z,1028.63
2018-09-25T04:55:03.434Z,1028.57
2018-09-25T04:56:03.447Z,1028.61
2018-09-25T04:57:03.524Z,1028.63
2018-09-25T04:58:03.476Z,1028.63
2018-09-25T04:59:03.492Z,1028.63
2018-09-25T05:00:03.503Z,1028.63
2018-09-25T05:01:03.516Z,1028.64
2018-09-25T05:02:03.529Z,1028.61
2018-09-25T05:03:03.543Z,1028.62
2018-09-25T05:04:03.557Z,1028.61
2018-09-25T05:05:03.570Z,1028.63
2018-09-25T05:06:03.584Z,1028.66
2018-09-25T05:07:03.599Z,1028.66
2018-09-25T05:08:03.612Z,1028.69
2018-09-25T05:09:03.625Z,1028.63
2018-09-25T05:10:03.645Z,1028.64
2018-09-25T05:11:03.652Z,1028.70
2018-09-25T05:12:03.676Z,1028.70
2018-09-25T05:13:03.687Z,1028.75
2018-09-25T05:14:03.692Z,1028.73
2018-09-25T05:15:03.711Z,1028.75
2018-09-25T05:16:03.719Z,1028.76
2018-09-25T05:17:03.721Z,1028.80
2018-09-25T05:18:03.744Z,1028.82
2018-09-25T05:19:03.749Z,1028.83
2018-09-25T05:20:03.761Z,1028.78
2018-09-25T05:21:03.776Z,1028.78
2018-09-25T05:22:03.788Z,1028.80
2018-09-25T05:23:03.800Z,1028.81
2018-09-25T05:24:03.815Z,1028.90
2018-09-25T05:25:03.827Z,1028.87
2018-09-25T05:26:03.843Z,1028.88
2018-09-25T05:27:03.855Z,1028.87
2018-09-25T05:28:03.874Z,1028.84
2018-09-25T05:29:03.881Z,1028.89
2018-09-25T05:30:03.896Z,1028.85
2018-09-25T05:31:03.908Z,1028.86
2018-09-25T05:32:03.922Z,1028.91
2018-09-25T05:33:03.936Z,1028.87
2018-09-25T05:34:03.950Z,1028.91
2018-09-25T05:35:03.963Z,1028.93
2018-09-25T05:36:03.977Z,1028.94
2018-09-25T05:37:03.990Z,1028.95
2018-09-25T05:38:04.004Z,1028.96
2018-09-25T05:39:04.017Z,1028.98
2018-09-25T05:40:04.031Z,1028.99
2018-09-25T05:41:04.113Z,1029.01
2018-09-25T05:42:04.063Z,1029.05
2018-09-25T05:43:04.072Z,1029.05
2018-09-25T05:44:04.085Z,1029.06
2018-09-25T05:45:04.099Z,1029.09
2018-09-25T05:46:04.113Z,1029.02
2018-09-25T05:47:04.125Z,1029.05
2018-09-25T05:48:04.145Z,1029.05
2018-09-25T05:49:04.218Z,1029.07
2018-09-25T05:50:04.166Z,1029.05
2018-09-25T05:51:04.180Z,1029.07
2018-09-25T05:52:04.192Z,1029.06
2018-09-25T05:53:04.205Z,1029.10
2018-09-25T05:54:04.221Z,1029.13
2018-09-25T05:55:04.233Z,1029.11
2018-09-25T05:56:04.250Z,1029.11
2018-09-25T05:57:04.261Z,1029.16
2018-09-25T05:58:04.276Z,1029.17
2018-09-25T05:59:04.288Z,1029.22
2018-09-25T06:00:04.304Z,1029.23
2018-09-25T06:01:04.353Z,1029.30
2018-09-25T06:02:04.329Z,1029.28
2018-09-25T06:03:04.344Z,1029.30
2018-09-25T06:04:04.356Z,1029.29
2018-09-25T06:05:04.369Z,1029.32
2018-09-25T06:06:04.386Z,1029.32
2018-09-25T06:07:04.396Z,1029.35
2018-09-25T06:08:04.412Z,1029.31
2018-09-25T06:09:04.423Z,1029.32
2018-09-25T06:10:04.426Z,1029.35
2018-09-25T06:11:04.452Z,1029.34
2018-09-25T06:12:04.464Z,1029.39
2018-09-25T06:13:04.476Z,1029.37
2018-09-25T06:14:04.480Z,1029.39
2018-09-25T06:15:04.504Z,1029.37
2018-09-25T06:16:04.519Z,1029.38
2018-09-25T06:17:04.532Z,1029.39
2018-09-25T06:18:04.534Z,1029.36
2018-09-25T06:19:04.558Z,1029.42
2018-09-25T06:20:04.573Z,1029.45
2018-09-25T06:21:04.598Z,1029.42
2018-09-25T06:22:04.600Z,1029.51
2018-09-25T06:23:04.651Z,1029.54
2018-09-25T06:24:04.627Z,1029.49
2018-09-25T06:25:04.639Z,1029.50
2018-09-25T06:26:04.654Z,1029.49
2018-09-25T06:27:04.675Z,1029.53
2018-09-25T06:28:04.681Z,1029.59
2018-09-25T06:29:04.693Z,1029.54
2018-09-25T06:30:04.708Z,1029.55
2018-09-25T06:31:04.722Z,1029.59
2018-09-25T06:32:04.734Z,1029.62
2018-09-25T06:33:04.747Z,1029.62
2018-09-25T06:34:04.763Z,1029.55
2018-09-25T06:35:04.794Z,1029.65
2018-09-25T06:36:04.789Z,1029.69
2018-09-25T06:37:04.805Z,1029.73
2018-09-25T06:38:04.817Z,1029.66
2018-09-25T06:39:04.829Z,1029.70
2018-09-25T06:40:04.843Z,1029.74
2018-09-25T06:41:04.857Z,1029.73
2018-09-25T06:42:04.871Z,1029.76
2018-09-25T06:43:04.883Z,1029.75
2018-09-25T06:44:04.897Z,1029.78
2018-09-25T06:45:04.911Z,1029.79
2018-09-25T06:46:04.925Z,1029.77
2018-09-25T06:47:04.939Z,1029.76
2018-09-25T06:48:04.951Z,1029.77
2018-09-25T06:49:04.977Z,1029.82
2018-09-25T06:50:04.979Z,1029.80
2018-09-25T06:51:04.991Z,1029.84
2018-09-25T06:52:05.006Z,1029.83
2018-09-25T06:53:05.018Z,1029.85
2018-09-25T06:54:05.033Z,1029.87
2018-09-25T06:55:05.193Z,1029.84
2018-09-25T06:56:05.072Z,1029.88
2018-09-25T06:57:05.073Z,1029.85
2018-09-25T06:58:05.088Z,1029.86
2018-09-25T06:59:05.101Z,1029.87
2018-09-25T07:00:05.114Z,1029.90
2018-09-25T07:01:05.131Z,1029.91
2018-09-25T07:02:05.152Z,1029.90
2018-09-25T07:03:05.167Z,1029.93
2018-09-25T07:04:05.179Z,1029.94
2018-09-25T07:05:05.195Z,1029.97
2018-09-25T07:06:05.207Z,1030.01
2018-09-25T07:07:05.221Z,1030.02
2018-09-25T07:08:05.235Z,1030.05
2018-09-25T07:09:05.248Z,1030.09
2018-09-25T07:10:05.442Z,1030.14
2018-09-25T07:11:05.275Z,1030.15
2018-09-25T07:12:05.288Z,1030.19
2018-09-25T07:13:05.303Z,1030.19
2018-09-25T07:14:05.315Z,1030.16
2018-09-25T07:15:05.332Z,1030.18
2018-09-25T07:16:05.343Z,1030.25
2018-09-25T07:17:05.357Z,1030.25
2018-09-25T07:18:05.394Z,1030.23
2018-09-25T07:19:05.395Z,1030.22
2018-09-25T07:20:05.409Z,1030.23
2018-09-25T07:21:05.422Z,1030.29
2018-09-25T07:22:05.437Z,1030.24
2018-09-25T07:23:05.449Z,1030.25
2018-09-25T07:24:05.463Z,1030.27
2018-09-25T07:25:05.486Z,1030.27
2018-09-25T07:26:05.490Z,1030.26
2018-09-25T07:27:05.503Z,1030.33
2018-09-25T07:28:05.519Z,1030.34
2018-09-25T07:29:05.531Z,1030.39
2018-09-25T07:30:05.545Z,1030.36
2018-09-25T07:31:05.588Z,1030.35
2018-09-25T07:32:05.584Z,1030.39
2018-09-25T07:33:05.597Z,1030.39
2018-09-25T07:34:05.611Z,1030.39
2018-09-25T07:35:05.624Z,1030.41
2018-09-25T07:36:05.640Z,1030.41
2018-09-25T07:37:05.652Z,1030.44
2018-09-25T07:38:05.664Z,1030.45
2018-09-25T07:39:05.678Z,1030.44
2018-09-25T07:40:05.692Z,1030.43
2018-09-25T07:41:05.732Z,1030.44
2018-09-25T07:42:05.734Z,1030.41
2018-09-25T07:43:05.749Z,1030.44
2018-09-25T07:44:05.759Z,1030.45
2018-09-25T07:45:05.772Z,1030.44
2018-09-25T07:46:05.825Z,1030.45
2018-09-25T07:47:05.798Z,1030.46
2018-09-25T07:48:05.874Z,1030.47
2018-09-25T07:49:05.827Z,1030.49
2018-09-25T07:50:05.853Z,1030.49
2018-09-25T07:51:05.866Z,1030.48
2018-09-25T07:52:05.880Z,1030.51
2018-09-25T07:53:05.899Z,1030.48
2018-09-25T07:54:05.918Z,1030.56
2018-09-25T07:55:05.920Z,1030.55
2018-09-25T07:56:05.935Z,1030.55
2018-09-25T07:57:05.960Z,1030.53
2018-09-25T07:58:05.974Z,1030.51
2018-09-25T07:59:05.986Z,1030.58
2018-09-25T08:00:06.004Z,1030.55
2018-09-25T08:01:06.014Z,1030.57
2018-09-25T08:02:06.028Z,1030.58
2018-09-25T08:03:06.052Z,1030.57
2018-09-25T08:04:06.066Z,1030.57
2018-09-25T08:05:06.081Z,1030.62
2018-09-25T08:06:06.093Z,1030.64
2018-09-25T08:07:06.107Z,1030.64
2018-09-25T08:08:06.120Z,1030.65
2018-09-25T08:09:06.193Z,1030.62
2018-09-25T08:10:06.149Z,1030.67
2018-09-25T08:11:06.173Z,1030.67
2018-09-25T08:12:06.187Z,1030.68
2018-09-25T08:13:06.201Z,1030.67
2018-09-25T08:14:06.215Z,1030.72
2018-09-25T08:15:06.240Z,1030.62
2018-09-25T08:16:06.243Z,1030.70
2018-09-25T08:17:06.268Z,1030.65
2018-09-25T08:18:06.281Z,1030.67
2018-09-25T08:19:06.295Z,1030.69
2018-09-25T08:20:06.308Z,1030.71
2018-09-25T08:21:06.325Z,1030.70
2018-09-25T08:22:06.336Z,1030.71
2018-09-25T08:23:06.361Z,1030.70
2018-09-25T08:24:06.375Z,1030.74
2018-09-25T08:25:06.388Z,1030.77
2018-09-25T08:26:06.402Z,1030.75
2018-09-25T08:27:06.429Z,1030.78
2018-09-25T08:28:06.441Z,1030.77
2018-09-25T08:29:06.455Z,1030.75
2018-09-25T08:30:06.472Z,1030.84
2018-09-25T08:31:06.490Z,1030.76
2018-09-25T08:32:06.496Z,1030.78
2018-09-25T08:33:06.521Z,1030.80
2018-09-25T08:34:06.537Z,1030.84
2018-09-25T08:35:06.573Z,1030.81
2018-09-25T08:36:06.565Z,1030.80
2018-09-25T08:37:06.576Z,1030.83
2018-09-25T08:38:06.601Z,1030.84
2018-09-25T08:39:06.660Z,1030.86
2018-09-25T08:40:06.631Z,1030.86
2018-09-25T08:41:06.643Z,1030.85
2018-09-25T08:42:06.657Z,1030.87
2018-09-25T08:43:06.681Z,1030.92
2018-09-25T08:44:06.695Z,1030.91
2018-09-25T08:45:06.709Z,1030.93
2018-09-25T08:46:06.722Z,1030.90
2018-09-25T08:47:06.737Z,1030.94
2018-09-25T08:48:06.775Z,1031.02
2018-09-25T08:49:06.776Z,1030.96
2018-09-25T08:50:06.790Z,1031.06
2018-09-25T08:51:06.804Z,1031.01
2018-09-25T08:52:06.830Z,1031.07
2018-09-25T08:53:06.843Z,1031.03
2018-09-25T08:54:06.859Z,1031.08
2018-09-25T08:55:06.872Z,1031.05
2018-09-25T08:56:06.908Z,1031.07
2018-09-25T08:57:06.909Z,1031.05
2018-09-25T08:58:06.923Z,1031.08
2018-09-25T08:59:06.937Z,1031.09
2018-09-25T09:00:06.968Z,1031.08
2018-09-25T09:01:07.044Z,1031.07
2018-09-25T09:02:06.994Z,1031.06
2018-09-25T09:03:07.009Z,1031.11
2018-09-25T09:04:07.029Z,1031.13
2018-09-25T09:05:07.043Z,1031.14
2018-09-25T09:06:07.056Z,1031.13
2018-09-25T09:07:07.081Z,1031.19
2018-09-25T09:08:07.096Z,1031.18
2018-09-25T09:09:07.108Z,1031.24
2018-09-25T09:10:07.123Z,1031.20
2018-09-25T09:11:07.149Z,1031.20
2018-09-25T09:12:07.161Z,1031.23
2018-09-25T09:13:07.175Z,1031.22
2018-09-25T09:14:07.190Z,1031.21
2018-09-25T09:15:07.214Z,1031.23
2018-09-25T09:16:07.229Z,1031.20
2018-09-25T09:17:07.242Z,1031.27
2018-09-25T09:18:07.267Z,1031.26
2018-09-25T09:19:07.286Z,1031.29
2018-09-25T09:20:07.381Z,1031.32
2018-09-25T09:21:07.322Z,1031.35
2018-09-25T09:22:07.334Z,1031.28
2018-09-25T09:23:07.349Z,1031.32
2018-09-25T09:24:07.364Z,1031.31
2018-09-25T09:25:07.394Z,1031.24
2018-09-25T09:26:07.403Z,1031.28
2018-09-25T09:27:07.414Z,1031.31
2018-09-25T09:28:07.441Z,1031.32
2018-09-25T09:29:07.453Z,1031.34
2018-09-25T09:30:07.471Z,1031.36
2018-09-25T09:31:07.495Z,1031.37
2018-09-25T09:32:07.509Z,1031.33
2018-09-25T09:33:07.524Z,1031.32
2018-09-25T09:34:07.547Z,1031.37
2018-09-25T09:35:07.561Z,1031.37
2018-09-25T09:36:07.574Z,1031.39
2018-09-25T09:37:07.600Z,1031.41
2018-09-25T09:38:07.613Z,1031.40
2018-09-25T09:39:07.627Z,1031.44
2018-09-25T09:40:07.653Z,1031.47
2018-09-25T09:41:07.716Z,1031.49
2018-09-25T09:42:07.777Z,1031.49
2018-09-25T09:43:07.708Z,1031.59
2018-09-25T09:44:07.720Z,1031.55
2018-09-25T09:45:07.733Z,1031.58
2018-09-25T09:46:07.760Z,1031.68
2018-09-25T09:47:07.772Z,1031.65
2018-09-25T09:48:07.787Z,1031.63
2018-09-25T09:49:07.812Z,1031.64
2018-09-25T09:50:07.826Z,1031.63
2018-09-25T09:51:07.852Z,1031.68
2018-09-25T09:52:07.866Z,1031.58
2018-09-25T09:53:07.879Z,1031.56
2018-09-25T09:54:07.904Z,1031.46
2018-09-25T09:55:07.918Z,1031.38
2018-09-25T09:56:07.945Z,1031.44
2018-09-25T09:57:07.958Z,1031.47
2018-09-25T09:58:07.972Z,1031.49
2018-09-25T09:59:07.997Z,1031.52
2018-09-25T10:00:08.011Z,1031.54
2018-09-25T10:01:08.038Z,1031.56
2018-09-25T10:02:08.097Z,1031.62
2018-09-25T10:03:08.065Z,1031.55
2018-09-25T10:04:08.090Z,1031.62
2018-09-25T10:05:08.104Z,1031.58
2018-09-25T10:06:08.129Z,1031.58
2018-09-25T10:07:08.210Z,1031.52
2018-09-25T10:08:08.168Z,1031.54
2018-09-25T10:09:08.184Z,1031.61
2018-09-25T10:10:08.209Z,1031.65
2018-09-25T10:11:08.222Z,1031.55
2018-09-25T10:12:08.251Z,1031.50
2018-09-25T10:13:08.262Z,1031.51
2018-09-25T10:14:08.289Z,1031.54
2018-09-25T10:15:08.302Z,1031.49
2018-09-25T10:16:08.340Z,1031.50
2018-09-25T10:17:08.341Z,1031.54
2018-09-25T10:18:08.355Z,1031.60
2018-09-25T10:19:08.379Z,1031.50
2018-09-25T10:20:08.406Z,1031.56
2018-09-25T10:21:08.421Z,1031.55
2018-09-25T10:22:08.435Z,1031.59
2018-09-25T10:23:08.459Z,1031.63
2018-09-25T10:24:08.475Z,1031.69
2018-09-25T10:25:08.500Z,1031.67
2018-09-25T10:26:08.513Z,1031.66
2018-09-25T10:27:08.553Z,1031.65
2018-09-25T10:28:08.554Z,1031.65
2018-09-25T10:29:08.578Z,1031.68
2018-09-25T10:30:08.592Z,1031.66
2018-09-25T10:31:08.617Z,1031.55
2018-09-25T10:32:08.644Z,1031.57
2018-09-25T10:33:08.658Z,1031.58
2018-09-25T10:34:08.725Z,1031.57
2018-09-25T10:35:08.696Z,1031.57
2018-09-25T10:36:08.725Z,1031.59
2018-09-25T10:37:08.736Z,1031.61
2018-09-25T10:38:08.763Z,1031.61
2018-09-25T10:39:08.776Z,1031.58
2018-09-25T10:40:08.801Z,1031.62
2018-09-25T10:41:08.839Z,1031.59
2018-09-25T10:42:08.841Z,1031.57
2018-09-25T10:43:08.855Z,1031.47
2018-09-25T10:44:08.881Z,1031.45
2018-09-25T10:45:08.895Z,1031.48
2018-09-25T10:46:08.921Z,1031.56
2018-09-25T10:47:08.934Z,1031.64
2018-09-25T10:48:08.974Z,1031.55
2018-09-25T10:49:08.974Z,1031.59
2018-09-25T10:50:09.044Z,1031.50
2018-09-25T10:51:09.013Z,1031.46
2018-09-25T10:52:09.039Z,1031.54
2018-09-25T10:53:09.053Z,1031.54
2018-09-25T10:54:09.079Z,1031.67
2018-09-25T10:55:09.104Z,1031.60
2018-09-25T10:56:09.256Z,1031.51
2018-09-25T10:57:09.133Z,1031.57
2018-09-25T10:58:09.159Z,1031.57
2018-09-25T10:59:09.171Z,1031.57
2018-09-25T11:00:09.199Z,1031.57
2018-09-25T11:01:09.212Z,1031.55
2018-09-25T11:02:09.239Z,1031.62
2018-09-25T11:03:09.369Z,1031.56
2018-09-25T11:04:09.277Z,1031.53
2018-09-25T11:05:09.303Z,1031.48
2018-09-25T11:06:09.317Z,1031.59
2018-09-25T11:07:09.332Z,1031.61
2018-09-25T11:08:09.361Z,1031.59
2018-09-25T11:09:09.370Z,1031.54
2018-09-25T11:10:09.456Z,1031.55
2018-09-25T11:11:09.410Z,1031.65
2018-09-25T11:12:09.435Z,1031.58
2018-09-25T11:13:09.451Z,1031.57
2018-09-25T11:14:09.475Z,1031.59
2018-09-25T11:15:09.489Z,1031.65
2018-09-25T11:16:09.515Z,1031.61
2018-09-25T11:17:09.529Z,1031.62
2018-09-25T11:18:09.555Z,1031.64
2018-09-25T11:19:09.568Z,1031.56
2018-09-25T11:20:09.596Z,1031.65
2018-09-25T11:21:09.608Z,1031.63
2018-09-25T11:22:09.621Z,1031.69
2018-09-25T11:23:09.648Z,1031.67
2018-09-25T11:24:09.661Z,1031.72
2018-09-25T11:25:09.687Z,1031.64
2018-09-25T11:26:09.699Z,1031.64
2018-09-25T11:27:09.726Z,1031.62
2018-09-25T11:28:09.741Z,1031.64
2018-09-25T11:29:09.773Z,1031.66
2018-09-25T11:30:09.779Z,1031.64
2018-09-25T11:31:09.793Z,1031.65
2018-09-25T11:32:09.822Z,1031.65
2018-09-25T11:33:09.835Z,1031.64
2018-09-25T11:34:09.859Z,1031.73
2018-09-25T11:35:09.898Z,1031.66
2018-09-25T11:36:09.899Z,1031.73
2018-09-25T11:37:09.912Z,1031.75
2018-09-25T11:38:09.938Z,1031.79
2018-09-25T11:39:09.951Z,1031.72
2018-09-25T11:40:09.967Z,1031.81
2018-09-25T11:41:10.005Z,1031.89
2018-09-25T11:42:10.005Z,1031.85
2018-09-25T11:43:10.031Z,1031.84
2018-09-25T11:44:10.044Z,1031.75
2018-09-25T11:45:10.071Z,1031.78
2018-09-25T11:46:10.086Z,1031.82
2018-09-25T11:47:10.184Z,1031.82
2018-09-25T11:48:10.123Z,1031.90
2018-09-25T11:49:10.161Z,1031.89
2018-09-25T11:50:10.172Z,1031.85
2018-09-25T11:51:10.177Z,1031.88
2018-09-25T11:52:10.201Z,1031.94
2018-09-25T11:53:10.227Z,1031.87
2018-09-25T11:54:10.247Z,1031.83
2018-09-25T11:55:10.255Z,1031.78
2018-09-25T11:56:10.286Z,1031.84
2018-09-25T11:57:10.307Z,1031.78
2018-09-25T11:58:10.320Z,1031.70
2018-09-25T11:59:10.336Z,1031.80
2018-09-25T12:00:10.360Z,1031.80
2018-09-25T12:01:10.389Z,1031.74
2018-09-25T12:02:10.440Z,1031.78
2018-09-25T12:03:10.414Z,1031.78
2018-09-25T12:04:10.438Z,1031.82
2018-09-25T12:05:10.465Z,1031.83
2018-09-25T12:06:10.480Z,1031.81